createdAt,value
2022-08-05T00:01:28.014Z,2.35
2022-08-05T00:04:30.860Z,2.20
2022-08-05T00:07:59.969Z,2.38
2022-08-05T00:11:01.602Z,2.30
2022-08-05T00:14:11.946Z,2.03
2022-08-05T00:17:19.420Z,2.20
2022-08-05T00:20:22.015Z,2.20
2022-08-05T00:23:45.643Z,2.22
2022-08-05T00:26:51.749Z,2.08
2022-08-05T00:29:53.877Z,2.10
2022-08-05T00:32:58.041Z,2.25
2022-08-05T00:36:14.935Z,2.38
2022-08-05T00:39:18.411Z,2.10
2022-08-05T00:42:35.052Z,2.10
2022-08-05T00:45:38.614Z,2.05
2022-08-05T00:48:50.283Z,2.15
2022-08-05T00:51:53.523Z,1.85
2022-08-05T00:54:56.037Z,2.05
2022-08-05T00:57:59.225Z,2.00
2022-08-05T01:01:01.206Z,2.00
2022-08-05T01:04:03.728Z,2.08
2022-08-05T01:07:15.674Z,2.00
2022-08-05T01:10:25.780Z,2.08
2022-08-05T01:13:58.670Z,1.90
2022-08-05T01:17:12.201Z,2.10
2022-08-05T01:20:34.556Z,2.00
2022-08-05T01:24:13.247Z,2.10
2022-08-05T01:27:55.475Z,2.00
2022-08-05T01:31:29.779Z,1.80
2022-08-05T01:34:34.164Z,2.00
2022-08-05T01:38:04.993Z,2.05
2022-08-05T01:41:07.984Z,2.05
2022-08-05T01:44:11.218Z,2.05
2022-08-05T01:47:17.182Z,2.10
2022-08-05T01:50:30.481Z,2.10
2022-08-05T01:53:54.648Z,1.90
2022-08-05T01:58:11.438Z,1.88
2022-08-05T02:00:30.240Z,2.10
2022-08-05T02:03:39.296Z,2.20
2022-08-05T02:06:41.629Z,1.88
2022-08-05T02:09:47.052Z,1.90
2022-08-05T02:12:59.970Z,2.03
2022-08-05T02:16:16.608Z,2.28
2022-08-05T02:19:41.415Z,2.30
2022-08-05T02:22:57.052Z,2.30
2022-08-05T02:26:02.834Z,2.15
2022-08-05T02:29:07.157Z,2.13
2022-08-05T02:32:30.938Z,2.33
2022-08-05T02:35:37.640Z,2.30
2022-08-05T02:38:44.712Z,2.38
2022-08-05T02:42:00.551Z,2.30
2022-08-05T02:45:03.604Z,2.15
2022-08-05T02:48:09.851Z,2.42
2022-08-05T02:51:16.301Z,2.40
2022-08-05T02:54:35.959Z,2.30
2022-08-05T02:58:12.050Z,2.45
2022-08-05T03:01:03.009Z,2.40
2022-08-05T03:04:11.784Z,2.28
2022-08-05T03:07:24.669Z,2.20
2022-08-05T03:10:36.422Z,2.25
2022-08-05T03:13:51.022Z,2.30
2022-08-05T03:19:58.476Z,2.30
2022-08-05T03:23:00.767Z,2.10
2022-08-05T03:26:32.061Z,2.10
2022-08-05T03:29:45.748Z,2.40
2022-08-05T03:32:49.245Z,2.40
2022-08-05T03:35:51.816Z,2.30
2022-08-05T03:38:53.575Z,2.20
2022-08-05T03:41:56.669Z,2.05
2022-08-05T03:44:58.335Z,2.30
2022-08-05T03:48:00.039Z,2.47
2022-08-05T03:52:39.018Z,2.70
2022-08-05T03:56:01.121Z,2.25
2022-08-05T03:58:19.483Z,2.17
2022-08-05T04:01:22.945Z,2.40
2022-08-05T04:04:26.490Z,2.35
2022-08-05T04:07:29.747Z,2.42
2022-08-05T04:13:50.632Z,2.20
2022-08-05T04:16:54.651Z,2.25
2022-08-05T04:20:01.847Z,2.50
2022-08-05T04:23:04.519Z,2.70
2022-08-05T04:26:06.303Z,2.80
2022-08-05T04:29:08.873Z,2.50
2022-08-05T04:32:10.949Z,2.92
2022-08-05T04:35:17.741Z,2.80
2022-08-05T04:38:21.587Z,2.42
2022-08-05T04:41:41.110Z,2.78
2022-08-05T04:44:42.899Z,2.58
2022-08-05T04:47:47.268Z,2.60
2022-08-05T04:51:03.623Z,2.33
2022-08-05T04:54:12.123Z,2.60
2022-08-05T04:57:13.966Z,2.53
2022-08-05T05:00:16.035Z,2.38
2022-08-05T05:03:18.780Z,2.45
2022-08-05T05:06:39.450Z,2.40
2022-08-05T05:09:44.559Z,2.25
2022-08-05T05:12:46.166Z,2.25
2022-08-05T05:15:56.569Z,2.40
2022-08-05T05:19:18.962Z,2.30
2022-08-05T05:22:26.412Z,2.28
2022-08-05T05:25:32.553Z,2.40
2022-08-05T05:28:42.652Z,2.20
2022-08-05T05:31:46.279Z,2.25
2022-08-05T05:34:48.405Z,2.30
2022-08-05T05:38:00.347Z,2.10
2022-08-05T05:41:03.595Z,2.20
2022-08-05T05:44:37.546Z,1.98
2022-08-05T05:48:06.967Z,2.20
2022-08-05T05:50:53.673Z,2.10
2022-08-05T05:53:59.830Z,2.10
2022-08-05T06:00:10.223Z,2.00
2022-08-05T06:03:40.096Z,2.10
2022-08-05T06:06:38.464Z,2.20
2022-08-05T06:10:00.124Z,2.10
2022-08-05T06:13:05.420Z,2.00
2022-08-05T06:16:30.281Z,2.00
2022-08-05T06:19:34.411Z,1.83
2022-08-05T06:22:37.434Z,2.17
2022-08-05T06:26:12.201Z,2.13
2022-08-05T06:29:06.976Z,1.90
2022-08-05T06:32:28.821Z,1.90
2022-08-05T06:36:04.175Z,2.00
2022-08-05T06:38:54.792Z,2.03
2022-08-05T06:42:04.179Z,2.00
2022-08-05T06:45:08.617Z,2.22
2022-08-05T06:48:36.530Z,2.30
2022-08-05T06:51:32.670Z,2.30
2022-08-05T06:54:34.519Z,1.98
2022-08-05T06:58:03.231Z,2.00
2022-08-05T07:01:00.645Z,2.00
2022-08-05T07:04:03.105Z,2.10
2022-08-05T07:07:15.192Z,2.00
2022-08-05T07:10:17.061Z,2.00
2022-08-05T07:13:57.173Z,2.10
2022-08-05T07:18:08.749Z,1.92
2022-08-05T07:20:38.920Z,1.77
2022-08-05T07:23:50.007Z,2.00
2022-08-05T07:26:54.129Z,1.80
2022-08-05T07:30:27.355Z,2.10
2022-08-05T07:33:36.866Z,1.88
2022-08-05T07:36:51.338Z,2.10
2022-08-05T07:40:04.041Z,2.00
2022-08-05T07:43:20.778Z,2.00
2022-08-05T07:46:25.174Z,1.95
2022-08-05T07:49:34.711Z,1.85
2022-08-05T07:53:22.607Z,1.92
2022-08-05T07:56:59.790Z,1.80
2022-08-05T07:59:53.887Z,1.90
2022-08-05T08:03:14.569Z,1.75
2022-08-05T08:06:29.974Z,2.05
2022-08-05T08:10:05.395Z,1.85
2022-08-05T08:13:07.336Z,2.10
2022-08-05T08:16:50.116Z,2.00
2022-08-05T08:20:10.117Z,1.75
2022-08-05T08:23:00.213Z,1.90
2022-08-05T08:26:05.278Z,1.88
2022-08-05T08:29:45.357Z,1.98
2022-08-05T08:32:34.489Z,1.80
2022-08-05T08:35:52.957Z,1.90
2022-08-05T08:39:06.480Z,1.80
2022-08-05T08:42:34.229Z,1.88
2022-08-05T08:45:48.763Z,1.73
2022-08-05T08:49:08.047Z,1.60
2022-08-05T08:52:25.781Z,1.73
2022-08-05T08:55:31.963Z,1.58
2022-08-05T08:58:51.678Z,1.67
2022-08-05T09:01:57.541Z,1.77
2022-08-05T09:05:17.687Z,1.65
2022-08-05T09:08:20.470Z,1.55
2022-08-05T09:11:52.686Z,1.65
2022-08-05T09:14:56.432Z,1.92
2022-08-05T09:17:59.937Z,1.70
2022-08-05T09:21:02.274Z,1.75
2022-08-05T09:24:08.811Z,1.67
2022-08-05T09:28:04.669Z,1.90
2022-08-05T09:31:01.342Z,1.80
2022-08-05T09:34:23.145Z,1.80
2022-08-05T09:40:52.191Z,1.50
2022-08-05T09:43:55.493Z,1.70
2022-08-05T09:47:17.639Z,1.80
2022-08-05T09:50:37.666Z,1.75
2022-08-05T09:53:53.529Z,1.60
2022-08-05T10:01:02.148Z,1.95
2022-08-05T10:04:16.150Z,1.90
2022-08-05T10:07:20.711Z,1.90
2022-08-05T10:10:43.998Z,1.70
2022-08-05T10:16:53.434Z,1.85
2022-08-05T10:20:03.703Z,1.92
2022-08-05T10:23:33.994Z,1.83
2022-08-05T10:26:36.877Z,1.63
2022-08-05T10:30:06.784Z,1.88
2022-08-05T10:33:14.723Z,2.00
2022-08-05T10:36:17.584Z,1.90
2022-08-05T10:39:58.998Z,1.85
2022-08-05T10:43:02.645Z,1.90
2022-08-05T10:46:09.304Z,1.80
2022-08-05T10:49:27.090Z,1.73
2022-08-05T10:52:46.962Z,1.80
2022-08-05T10:56:25.170Z,1.70
2022-08-05T11:00:04.284Z,1.75
2022-08-05T11:03:25.730Z,1.75
2022-08-05T11:06:30.946Z,1.65
2022-08-05T11:10:03.929Z,1.83
2022-08-05T11:13:57.743Z,1.70
2022-08-05T11:17:56.852Z,1.90
2022-08-05T11:20:51.683Z,1.60
2022-08-05T11:24:05.601Z,1.80
2022-08-05T11:27:45.789Z,1.67
2022-08-05T11:30:59.065Z,1.80
2022-08-05T11:34:08.196Z,1.63
2022-08-05T11:38:30.057Z,1.90
2022-08-05T11:41:03.550Z,1.73
2022-08-05T11:44:40.752Z,1.80
2022-08-05T11:47:49.867Z,1.85
2022-08-05T11:50:53.131Z,1.90
2022-08-05T11:53:56.571Z,1.90
2022-08-05T11:57:24.427Z,1.80
2022-08-05T12:00:31.742Z,1.88
2022-08-05T12:03:55.750Z,2.00
2022-08-05T12:07:00.084Z,1.83
2022-08-05T12:10:09.005Z,1.92
2022-08-05T12:13:15.782Z,1.77
2022-08-05T12:16:20.316Z,1.80
2022-08-05T12:20:25.340Z,1.75
2022-08-05T12:22:49.154Z,1.80
2022-08-05T12:29:01.318Z,1.80
2022-08-05T12:32:05.586Z,2.13
2022-08-05T12:35:09.691Z,1.98
2022-08-05T12:38:11.548Z,1.95
2022-08-05T12:41:17.517Z,1.80
2022-08-05T12:44:28.592Z,1.98
2022-08-05T12:47:36.151Z,2.00
2022-08-05T12:50:38.531Z,1.95
2022-08-05T12:53:55.617Z,1.98
2022-08-05T12:57:03.775Z,1.98
2022-08-05T13:02:04.266Z,1.85
2022-08-05T13:03:48.809Z,1.83
2022-08-05T13:06:52.047Z,2.05
2022-08-05T13:09:58.887Z,1.85
2022-08-05T13:13:06.410Z,2.10
2022-08-05T13:16:16.690Z,1.83
2022-08-05T13:19:21.675Z,2.03
2022-08-05T13:22:29.146Z,1.85
2022-08-05T13:25:52.120Z,2.13
2022-08-05T13:28:53.825Z,1.90
2022-08-05T13:32:04.350Z,1.90
2022-08-05T13:35:08.002Z,2.10
2022-08-05T13:38:11.526Z,2.00
2022-08-05T13:41:22.534Z,1.98
2022-08-05T13:44:27.432Z,2.00
2022-08-05T13:47:35.717Z,2.10
2022-08-05T13:50:52.271Z,2.38
2022-08-05T13:53:57.851Z,2.17
2022-08-05T13:56:59.701Z,2.10
2022-08-05T14:00:02.143Z,2.30
2022-08-05T14:03:11.013Z,2.20
2022-08-05T14:06:26.050Z,2.20
2022-08-05T14:09:29.733Z,2.40
2022-08-05T14:12:34.099Z,2.35
2022-08-05T14:16:07.546Z,2.58
2022-08-05T14:18:57.991Z,2.30
2022-08-05T14:22:09.974Z,2.20
2022-08-05T14:25:21.814Z,2.38
2022-08-05T14:28:26.981Z,2.38
2022-08-05T14:31:54.584Z,2.38
2022-08-05T14:34:51.041Z,2.35
2022-08-05T14:37:55.473Z,2.35
2022-08-05T14:40:57.518Z,2.85
2022-08-05T14:44:09.814Z,2.50
2022-08-05T14:47:58.370Z,2.53
2022-08-05T14:50:44.170Z,2.55
2022-08-05T14:54:26.979Z,2.55
2022-08-05T14:57:53.844Z,2.70
2022-08-05T15:00:59.283Z,2.70
2022-08-05T15:04:02.073Z,2.50
2022-08-05T15:07:03.733Z,2.60
2022-08-05T15:10:09.795Z,2.58
2022-08-05T15:13:11.994Z,2.47
2022-08-05T15:16:14.973Z,2.38
2022-08-05T15:19:23.865Z,2.38
2022-08-05T15:22:28.388Z,2.25
2022-08-05T15:25:52.592Z,2.08
2022-08-05T15:28:57.954Z,2.00
2022-08-05T15:32:02.243Z,2.13
2022-08-05T15:35:10.629Z,2.20
2022-08-05T15:38:35.408Z,1.95
2022-08-05T15:41:57.714Z,2.05
2022-08-05T15:44:57.544Z,2.13
2022-08-05T15:47:59.153Z,2.25
2022-08-05T15:51:03.414Z,2.17
2022-08-05T15:54:08.330Z,2.10
2022-08-05T15:57:10.373Z,2.10
2022-08-05T16:00:13.073Z,2.10
2022-08-05T16:03:18.874Z,2.17
2022-08-05T16:06:29.449Z,2.10
2022-08-05T16:09:32.006Z,2.15
2022-08-05T16:12:34.408Z,2.22
2022-08-05T16:15:36.103Z,2.22
2022-08-05T16:18:51.696Z,2.20
2022-08-05T16:22:02.600Z,2.20
2022-08-05T16:25:09.845Z,2.08
2022-08-05T16:28:11.956Z,2.25
2022-08-05T16:31:17.452Z,2.13
2022-08-05T16:34:21.591Z,2.08
2022-08-05T16:38:15.887Z,2.20
2022-08-05T16:40:47.902Z,2.30
2022-08-05T16:43:57.051Z,2.15
2022-08-05T16:46:59.309Z,2.28
2022-08-05T16:50:00.912Z,2.10
2022-08-05T16:53:12.574Z,2.08
2022-08-05T16:56:25.104Z,2.20
2022-08-05T16:59:27.808Z,2.50
2022-08-05T17:02:29.842Z,2.20
2022-08-05T17:05:32.215Z,2.20
2022-08-05T17:08:52.449Z,1.90
2022-08-05T17:12:00.026Z,2.30
2022-08-05T17:15:02.141Z,2.03
2022-08-05T17:18:04.600Z,2.10
2022-08-05T17:21:06.398Z,2.08
2022-08-05T17:24:19.534Z,1.95
2022-08-05T17:27:33.679Z,2.00
2022-08-05T17:30:50.284Z,2.10
2022-08-05T17:33:54.016Z,2.10
2022-08-05T17:37:00.558Z,2.20
2022-08-05T17:40:03.160Z,1.92
2022-08-05T17:43:07.875Z,1.98
2022-08-05T17:46:18.272Z,1.88
2022-08-05T17:49:20.897Z,2.08
2022-08-05T17:55:38.350Z,1.92
2022-08-05T17:58:41.495Z,2.10
2022-08-05T18:01:49.466Z,2.30
2022-08-05T18:04:55.017Z,2.20
2022-08-05T18:07:57.066Z,2.10
2022-08-05T18:10:59.291Z,2.08
2022-08-05T18:14:03.466Z,2.17
2022-08-05T18:17:06.115Z,2.30
2022-08-05T18:20:29.653Z,2.10
2022-08-05T18:23:45.827Z,2.20
2022-08-05T18:26:48.971Z,2.42
2022-08-05T18:29:54.366Z,2.10
2022-08-05T18:33:00.525Z,2.30
2022-08-05T18:36:11.866Z,2.50
2022-08-05T18:39:42.423Z,2.65
2022-08-05T18:42:40.194Z,2.92
2022-08-05T18:45:43.799Z,3.28
2022-08-05T18:48:51.840Z,3.35
2022-08-05T18:52:12.349Z,3.10
2022-08-05T18:55:14.005Z,2.75
2022-08-05T18:58:16.442Z,3.00
2022-08-05T19:01:18.663Z,2.97
2022-08-05T19:04:35.158Z,2.80
2022-08-05T19:07:59.751Z,2.60
2022-08-05T19:11:04.708Z,3.15
2022-08-05T19:14:44.425Z,3.10
2022-08-05T19:17:33.747Z,3.10
2022-08-05T19:20:52.534Z,3.45
2022-08-05T19:24:07.430Z,2.97
2022-08-05T19:27:11.540Z,3.00
2022-08-05T19:30:16.146Z,3.28
2022-08-05T19:33:35.974Z,3.50
2022-08-05T19:39:45.658Z,3.13
2022-08-05T19:43:05.541Z,3.10
2022-08-05T19:49:30.762Z,2.85
2022-08-05T19:52:32.687Z,3.13
2022-08-05T19:56:14.879Z,2.83
2022-08-05T19:58:56.301Z,2.58
2022-08-05T20:02:01.468Z,2.70
2022-08-05T20:05:05.098Z,2.35
2022-08-05T20:08:11.587Z,2.50
2022-08-05T20:11:17.884Z,2.30
2022-08-05T20:14:27.145Z,2.10
2022-08-05T20:17:29.119Z,2.22
2022-08-05T20:20:35.459Z,2.42
2022-08-05T20:23:51.192Z,2.25
2022-08-05T20:26:55.053Z,2.55
2022-08-05T20:29:59.052Z,2.75
2022-08-05T20:33:00.948Z,2.70
2022-08-05T20:36:02.649Z,2.40
2022-08-05T20:39:04.460Z,2.65
2022-08-05T20:42:08.051Z,2.40
2022-08-05T20:45:13.498Z,2.90
2022-08-05T20:48:16.700Z,2.70
2022-08-05T20:51:18.527Z,2.85
2022-08-05T20:54:20.265Z,2.90
2022-08-05T20:57:42.640Z,3.00
2022-08-05T21:00:51.787Z,2.72
2022-08-05T21:03:56.537Z,3.00
2022-08-05T21:06:59.151Z,2.72
2022-08-05T21:10:01.294Z,2.78
2022-08-05T21:13:10.334Z,2.90
2022-08-05T21:16:17.689Z,2.60
2022-08-05T21:19:20.112Z,2.70
2022-08-05T21:22:25.470Z,2.50
2022-08-05T21:25:33.992Z,2.80
2022-08-05T21:28:36.028Z,2.70
2022-08-05T21:31:41.341Z,2.80
2022-08-05T21:34:43.537Z,2.67
2022-08-05T21:37:58.252Z,2.53
2022-08-05T21:40:59.952Z,2.42
2022-08-05T21:44:04.287Z,3.00
2022-08-05T21:47:06.517Z,2.40
2022-08-05T21:50:28.291Z,2.40
2022-08-05T21:53:30.222Z,2.10
2022-08-05T21:56:35.809Z,2.10
2022-08-05T22:00:04.821Z,2.30
2022-08-05T22:03:15.381Z,2.13
2022-08-05T22:06:22.496Z,2.05
2022-08-05T22:09:25.212Z,2.30
2022-08-05T22:12:50.653Z,2.00
2022-08-05T22:16:00.286Z,1.88
2022-08-05T22:19:56.087Z,2.00
2022-08-05T22:22:28.846Z,2.03
2022-08-05T22:26:09.938Z,2.10
2022-08-05T22:29:11.928Z,2.13
2022-08-05T22:32:17.434Z,1.80
2022-08-05T22:35:19.742Z,1.88
2022-08-05T22:38:21.421Z,1.80
2022-08-05T22:42:10.151Z,1.90
2022-08-05T22:44:56.444Z,2.15
2022-08-05T22:47:58.607Z,1.90
2022-08-05T22:51:00.419Z,2.00
2022-08-05T22:54:08.570Z,1.98
2022-08-05T22:57:10.362Z,2.05
2022-08-05T23:00:12.427Z,1.80
2022-08-05T23:03:20.286Z,1.92
2022-08-05T23:06:42.488Z,2.00
2022-08-05T23:09:57.898Z,1.70
2022-08-05T23:13:04.315Z,2.10
2022-08-05T23:16:10.389Z,1.73
2022-08-05T23:22:28.797Z,1.73
2022-08-05T23:25:52.568Z,1.90
2022-08-05T23:28:52.601Z,1.63
2022-08-05T23:31:55.749Z,1.67
2022-08-05T23:34:58.982Z,1.80
2022-08-05T23:38:00.892Z,1.60
2022-08-05T23:41:02.641Z,1.70
2022-08-05T23:44:08.567Z,1.90
2022-08-05T23:47:15.533Z,1.60
2022-08-05T23:50:19.978Z,1.90
2022-08-05T23:53:22.506Z,1.85
2022-08-05T23:56:27.184Z,2.05
2022-08-05T23:59:37.789Z,1.70
